Green Village, NJ (07935)

8:27 PM EST on February 26, 2015 (GMT -0500)
Chatham | Change Station
CLOSE
Current Station
Personal Weather Station
Location: Chatham, NJ
Elevation: 315 ft
Nearby Weather Stations

Elev 315 ft 40.74 °N, 74.42 °W | Updated 8 seconds ago

Overcast
Overcast
22.1 °F
Feels Like 22 °F
N
0.0
Wind Variable Wind from NW
Gusts 0.0 mph

Today
High -- | Low -- °F
--% Chance of Precip.
Yesterday
High -- | Low -- °F
Precip. -- in
6:36 AM 5:45 PM
Waxing Gibbous, 64% visible
Pressure 30.09 in
Visibility 10.0 miles
Clouds Overcast 9000 ft
Windchill 22 °F
Dew Point 14 °F
Humidity 71%
Rainfall 0.00 in
Snow Depth Not available.
UV 0 out of 12
Pollen .50 out of 12
Air Quality Not available.
Flu Activity Not available.
METAR KMMU 270045Z 00000KT 10SM OVC090 M06/M11 A3009

More Conditions Fewer Conditions

Pressure 30.09 in
Visibility 10.0 miles
Clouds Overcast 9000 ft
Windchill 22 °F
Dew Point 14 °F
Humidity 71%
Rainfall 0.00 in
Snow Depth Not available.
UV 0 out of 12
Pollen .50 out of 12
Air Quality Not available.
Flu Activity Not available.
METAR KMMU 270045Z 00000KT 10SM OVC090 M06/M11 A3009

More Conditions Fewer Conditions

10-Day Weather Forecast

Almanac

Astronomy

Feb. 26, 2015 Rise Set
Actual Time
Civil Twilight
Nautical Twilight
Astronomical Twilight
Moon
Length of Visible Light
Length of Day
Tomorrow will be .
, % of the Moon is Illuminated

Today's Extremes

State Highs State Lows

Community

WunderPhotos

Upload Photos

1,800,553 photos uploaded!

WunderBlogs® & News

Nearby

Air Quality

  Air Quality AQ Index Pollutant
Not available.

Snow Depth

Station Depth Elevation

Earthquake Activity

City Distance Mag. Time & Date
Minimum magnitude displayed is 2.5.

Coastal Water Temperatures

Place Temperature

Nearby Weather Stations